Pagina principală
METAR-TAF:

METAR-TAF

Aeroporturi :

Weno, Micronezia

Latitudine: 07-28N, longitudine: 151-51E, elevație: 3 m

Observații meteo curente

Raportul a fost făcut în urmă cu 1 oră și 16 de minute, la 16:50 UTC
Vânt 4 kt din direcții variabile
Temperatură 25°C
Umiditate 94%
Presiune 1009 hPa
Vizibilitate: 19.3 km
Nori împrăștiați la o înălțime de 1200 picior, Cumulonimbus.
Nori fragmentați la o înălțime de 12000 picior
Total acoperit la o înălțime de 28000 picior

METAR: PTKK 281650Z VRB04KT 12SM SCT012CB BKN120 OVC280 25/24 A2981 RMK SHRAB20E40 CB ALQDS SLP098 T02510244

Ora: 04:06 (18:06 UTC)

Prognoză

Raportul a fost făcut în urmă cu 42 de minute, la 17:24 UTC
Prognoză valabilă de la 28 ora 18 UTC la 29 ora 18 UTC
Vânt 7 kt de la Est
Vizibilitate: 10 km
Nori împrăștiați la o înălțime de 1200 picior
Nori fragmentați la o înălțime de 12000 picior
averse în apropiere,

TAF: PTKK 281724Z 2818/2918 08007KT P6SM VCSH SCT012 BKN120

Observații și prognoze meteo pentru peste 4.000 de aeroporturi (rapoarte METAR și TAF).

Stațiile disponibile sunt reprezentate pe hartă prin puncte galbene și roșii.

Țineți indicatorul mouse-ului pe punctul dorit pentru a vedea denumirea stației.

Apoi, faceți clic pentru a vedea observațiile și prognozele meteorologice.

Pentru a schimba harta: Pentru mărire, faceți clic pe butoanele verzi cu cruce neagră; pentru micșorare, pe butonul verde cu o liniuță; pentru hărți învecinate, pe săgețile verzi.


METAR-TAF: